createdAt,value
2023-05-26T00:01:04.705Z,3.28
2023-05-26T00:03:32.730Z,3.05
2023-05-26T00:06:00.019Z,3.05
2023-05-26T00:08:29.646Z,3.20
2023-05-26T00:10:56.865Z,2.90
2023-05-26T00:13:24.078Z,3.15
2023-05-26T00:15:51.381Z,2.60
2023-05-26T00:18:20.849Z,3.17
2023-05-26T00:20:48.200Z,3.05
2023-05-26T00:23:15.538Z,3.03
2023-05-26T00:25:42.773Z,2.63
2023-05-26T00:28:10.081Z,2.67
2023-05-26T00:30:37.448Z,3.13
2023-05-26T00:33:05.378Z,2.67
2023-05-26T00:35:32.726Z,2.88
2023-05-26T00:38:01.158Z,3.30
2023-05-26T00:40:28.820Z,2.67
2023-05-26T00:42:56.188Z,2.83
2023-05-26T00:45:23.434Z,2.90
2023-05-26T00:47:50.822Z,2.60
2023-05-26T00:50:18.336Z,3.00
2023-05-26T00:52:46.018Z,3.00
2023-05-26T00:55:13.464Z,3.30
2023-05-26T00:57:41.480Z,2.60
2023-05-26T01:00:10.129Z,3.13
2023-05-26T01:02:38.843Z,2.50
2023-05-26T01:05:07.925Z,2.42
2023-05-26T01:07:35.440Z,3.15
2023-05-26T01:10:03.243Z,3.53
2023-05-26T01:12:39.483Z,2.90
2023-05-26T01:15:16.662Z,3.15
2023-05-26T01:18:18.221Z,3.03
2023-05-26T01:20:57.584Z,2.60
2023-05-26T01:23:34.257Z,1.98
2023-05-26T01:26:32.964Z,4.28
2023-05-26T01:29:08.077Z,2.53
2023-05-26T01:31:38.793Z,3.38
2023-05-26T01:34:07.408Z,2.42
2023-05-26T01:36:36.680Z,2.95
2023-05-26T01:39:06.097Z,2.95
2023-05-26T01:41:58.997Z,2.72
2023-05-26T01:44:33.557Z,2.45
2023-05-26T01:47:02.732Z,2.72
2023-05-26T01:49:30.673Z,2.72
2023-05-26T01:52:00.521Z,2.13
2023-05-26T01:54:34.218Z,3.00
2023-05-26T01:57:03.827Z,3.50
2023-05-26T01:59:31.789Z,2.63
2023-05-26T02:01:59.068Z,3.30
2023-05-26T02:04:26.403Z,3.05
2023-05-26T02:06:55.584Z,3.10
2023-05-26T02:09:22.878Z,2.90
2023-05-26T02:11:50.234Z,3.50
2023-05-26T02:14:17.520Z,3.00
2023-05-26T02:16:45.131Z,2.63
2023-05-26T02:19:14.100Z,3.92
2023-05-26T02:21:41.893Z,3.90
2023-05-26T02:24:09.322Z,3.75
2023-05-26T02:26:38.448Z,3.22
2023-05-26T02:29:07.290Z,2.60
2023-05-26T02:31:41.960Z,3.00
2023-05-26T02:34:11.680Z,3.40
2023-05-26T02:36:39.086Z,3.47
2023-05-26T02:39:06.345Z,2.80
2023-05-26T02:41:33.534Z,2.72
2023-05-26T02:44:01.010Z,2.58
2023-05-26T02:46:30.882Z,3.33
2023-05-26T02:49:01.492Z,3.20
2023-05-26T02:51:29.129Z,2.55
2023-05-26T02:53:56.353Z,2.70
2023-05-26T02:56:23.621Z,3.28
2023-05-26T02:58:50.883Z,3.33
2023-05-26T03:01:18.368Z,2.92
2023-05-26T03:03:45.705Z,3.00
2023-05-26T03:06:12.961Z,3.70
2023-05-26T03:08:40.570Z,3.20
2023-05-26T03:11:10.148Z,3.40
2023-05-26T03:13:40.359Z,3.17
2023-05-26T03:16:08.124Z,3.38
2023-05-26T03:18:35.826Z,3.45
2023-05-26T03:21:05.359Z,3.13
2023-05-26T03:23:32.827Z,2.63
2023-05-26T03:26:01.639Z,3.35
2023-05-26T03:28:32.176Z,3.28
2023-05-26T03:30:59.993Z,3.10
2023-05-26T03:33:30.174Z,3.83
2023-05-26T03:35:59.973Z,3.10
2023-05-26T03:38:28.195Z,3.45
2023-05-26T03:40:57.449Z,3.72
2023-05-26T03:43:24.861Z,2.58
2023-05-26T03:45:52.211Z,3.35
2023-05-26T03:48:19.477Z,3.80
2023-05-26T03:50:48.819Z,3.17
2023-05-26T03:53:16.187Z,2.67
2023-05-26T03:55:44.375Z,2.50
2023-05-26T03:58:13.319Z,3.08
2023-05-26T04:00:40.689Z,3.42
2023-05-26T04:03:07.966Z,2.75
2023-05-26T04:05:36.287Z,3.13
2023-05-26T04:08:03.537Z,3.00
2023-05-26T04:10:30.821Z,2.85
2023-05-26T04:12:58.917Z,3.03
2023-05-26T04:15:26.194Z,2.67
2023-05-26T04:17:53.450Z,3.17
2023-05-26T04:20:20.840Z,2.95
2023-05-26T04:22:48.261Z,3.13
2023-05-26T04:25:17.886Z,2.88
2023-05-26T04:27:58.498Z,3.15
2023-05-26T04:30:43.692Z,3.35
2023-05-26T04:33:16.759Z,3.05
2023-05-26T04:35:57.473Z,3.35
2023-05-26T04:38:24.855Z,2.78
2023-05-26T04:40:52.184Z,3.03
2023-05-26T04:43:21.820Z,3.20
2023-05-26T04:45:49.392Z,2.33
2023-05-26T04:48:17.049Z,3.45
2023-05-26T04:50:44.395Z,3.42
2023-05-26T04:53:11.726Z,2.42
2023-05-26T04:55:41.531Z,3.38
2023-05-26T04:58:11.959Z,3.60
2023-05-26T05:00:39.278Z,2.88
2023-05-26T05:03:25.291Z,2.65
2023-05-26T05:06:02.505Z,3.38
2023-05-26T05:08:30.986Z,2.35
2023-05-26T05:10:58.520Z,3.33
2023-05-26T05:13:26.446Z,3.55
2023-05-26T05:15:54.227Z,3.22
2023-05-26T05:18:21.645Z,3.33
2023-05-26T05:20:49.284Z,2.47
2023-05-26T05:23:16.879Z,3.00
2023-05-26T05:25:44.309Z,3.13
2023-05-26T05:28:11.678Z,3.17
2023-05-26T05:30:46.266Z,3.05
2023-05-26T05:33:14.888Z,3.00
2023-05-26T05:35:42.169Z,3.20
2023-05-26T05:38:09.512Z,2.40
2023-05-26T05:40:36.860Z,3.17
2023-05-26T05:43:04.697Z,2.70
2023-05-26T05:45:32.275Z,3.00
2023-05-26T05:48:08.157Z,3.08
2023-05-26T05:50:45.936Z,2.92
2023-05-26T05:53:13.424Z,3.35
2023-05-26T05:55:40.772Z,2.95
2023-05-26T05:58:08.846Z,3.35
2023-05-26T06:00:36.077Z,3.53
2023-05-26T06:03:03.773Z,2.50
2023-05-26T06:05:33.515Z,3.15
2023-05-26T06:08:00.820Z,2.85
2023-05-26T06:10:29.625Z,5.07
2023-05-26T06:12:57.165Z,3.33
2023-05-26T06:15:24.783Z,3.30
2023-05-26T06:17:52.174Z,2.92
2023-05-26T06:20:19.566Z,3.05
2023-05-26T06:22:47.415Z,3.38
2023-05-26T06:25:14.878Z,2.45
2023-05-26T06:27:42.331Z,3.22
2023-05-26T06:30:11.865Z,2.60
2023-05-26T06:32:39.768Z,2.70
2023-05-26T06:35:07.346Z,3.28
2023-05-26T06:37:34.808Z,3.05
2023-05-26T06:40:02.280Z,2.90
2023-05-26T06:42:36.431Z,2.45
2023-05-26T06:45:04.703Z,3.90
2023-05-26T06:47:32.282Z,3.33
2023-05-26T06:50:13.319Z,3.47
2023-05-26T06:52:40.570Z,3.30
2023-05-26T06:55:08.275Z,3.25
2023-05-26T06:57:35.610Z,2.83
2023-05-26T07:00:04.248Z,2.40
2023-05-26T07:02:31.616Z,3.20
2023-05-26T07:05:18.943Z,3.05
2023-05-26T07:07:47.915Z,3.20
2023-05-26T07:10:16.386Z,3.42
2023-05-26T07:12:43.776Z,2.92
2023-05-26T07:15:25.529Z,3.22
2023-05-26T07:17:52.896Z,3.40
2023-05-26T07:20:20.402Z,3.00
2023-05-26T07:22:47.729Z,3.63
2023-05-26T07:25:21.002Z,3.78
2023-05-26T07:27:50.107Z,3.72
2023-05-26T07:30:19.294Z,3.30
2023-05-26T07:32:59.135Z,3.22
2023-05-26T07:35:26.495Z,3.75
2023-05-26T07:37:53.846Z,3.08
2023-05-26T07:40:21.165Z,4.07
2023-05-26T07:42:48.451Z,3.63
2023-05-26T07:45:16.723Z,4.00
2023-05-26T07:47:44.844Z,3.88
2023-05-26T07:50:13.841Z,3.28
2023-05-26T07:52:42.222Z,3.80
2023-05-26T07:55:09.555Z,3.22
2023-05-26T07:57:37.308Z,3.50
2023-05-26T08:00:06.116Z,2.40
2023-05-26T08:02:40.716Z,2.97
2023-05-26T08:05:08.425Z,3.92
2023-05-26T08:07:35.673Z,3.33
2023-05-26T08:10:04.295Z,4.10
2023-05-26T08:12:31.537Z,3.47
2023-05-26T08:14:58.769Z,3.53
2023-05-26T08:17:26.228Z,3.53
2023-05-26T08:19:53.538Z,3.50
2023-05-26T08:22:20.821Z,3.92
2023-05-26T08:24:48.062Z,3.25
2023-05-26T08:27:15.484Z,3.53
2023-05-26T08:29:42.750Z,3.20
2023-05-26T08:32:09.960Z,2.75
2023-05-26T08:34:37.322Z,3.45
2023-05-26T08:37:04.669Z,3.65
2023-05-26T08:39:31.934Z,3.25
2023-05-26T08:42:03.875Z,3.42
2023-05-26T08:44:31.671Z,3.05
2023-05-26T08:47:01.340Z,3.70
2023-05-26T08:49:32.198Z,3.05
2023-05-26T08:52:08.545Z,3.33
2023-05-26T08:54:38.956Z,3.60
2023-05-26T08:57:07.421Z,3.38
2023-05-26T08:59:34.963Z,2.88
2023-05-26T09:02:03.418Z,3.67
2023-05-26T09:04:31.679Z,3.70
2023-05-26T09:07:22.765Z,3.73
2023-05-26T09:09:47.130Z,3.45
2023-05-26T09:12:14.519Z,4.20
2023-05-26T09:14:42.897Z,4.13
2023-05-26T09:17:14.417Z,3.78
2023-05-26T09:19:41.929Z,4.00
2023-05-26T09:22:11.389Z,4.43
2023-05-26T09:24:46.841Z,5.38
2023-05-26T09:27:22.790Z,5.57
2023-05-26T09:29:56.010Z,5.65
2023-05-26T09:32:30.818Z,4.67
2023-05-26T09:35:01.120Z,4.85
2023-05-26T09:37:29.971Z,4.25
2023-05-26T09:40:11.371Z,4.60
2023-05-26T09:42:46.422Z,4.95
2023-05-26T09:45:13.618Z,5.13
2023-05-26T09:47:40.890Z,4.93
2023-05-26T09:50:08.813Z,4.68
2023-05-26T09:52:37.352Z,5.20
2023-05-26T09:55:05.258Z,4.78
2023-05-26T09:57:36.595Z,4.00
2023-05-26T10:00:08.900Z,4.70
2023-05-26T10:02:37.387Z,5.38
2023-05-26T10:05:06.752Z,4.57
2023-05-26T10:07:34.472Z,4.65
2023-05-26T10:10:05.141Z,4.60
2023-05-26T10:12:36.634Z,4.40
2023-05-26T10:15:04.896Z,4.20
2023-05-26T10:17:32.291Z,4.75
2023-05-26T10:20:01.005Z,4.18
2023-05-26T10:22:48.121Z,3.93
2023-05-26T10:25:36.916Z,4.63
2023-05-26T10:28:33.774Z,3.80
2023-05-26T10:31:02.881Z,3.97
2023-05-26T10:33:44.937Z,4.75
2023-05-26T10:36:17.425Z,4.27
2023-05-26T10:38:49.193Z,4.32
2023-05-26T10:41:51.981Z,4.75
2023-05-26T10:44:42.012Z,4.18
2023-05-26T10:47:14.659Z,4.30
2023-05-26T10:50:01.562Z,3.90
2023-05-26T10:52:51.492Z,4.90
2023-05-26T10:55:32.903Z,4.07
2023-05-26T10:58:28.103Z,4.20
2023-05-26T11:01:03.738Z,4.00
2023-05-26T11:03:54.159Z,4.60
2023-05-26T11:06:55.364Z,4.13
2023-05-26T11:09:24.040Z,4.18
2023-05-26T11:11:59.162Z,4.38
2023-05-26T11:14:28.967Z,4.90
2023-05-26T11:16:58.264Z,4.10
2023-05-26T11:19:39.536Z,4.55
2023-05-26T11:22:09.998Z,4.03
2023-05-26T11:24:37.964Z,4.43
2023-05-26T11:27:06.818Z,3.95
2023-05-26T11:29:34.553Z,4.67
2023-05-26T11:32:01.955Z,4.30
2023-05-26T11:34:29.325Z,4.20
2023-05-26T11:36:59.320Z,4.20
2023-05-26T11:39:32.853Z,4.82
2023-05-26T11:42:12.312Z,4.40
2023-05-26T11:44:39.940Z,4.70
2023-05-26T11:47:08.105Z,4.57
2023-05-26T11:49:35.467Z,4.03
2023-05-26T11:52:02.995Z,4.78
2023-05-26T11:54:30.301Z,4.90
2023-05-26T11:56:57.618Z,4.93
2023-05-26T11:59:24.995Z,4.28
2023-05-26T12:01:52.364Z,4.70
2023-05-26T12:04:29.562Z,4.25
2023-05-26T12:06:57.085Z,4.20
2023-05-26T12:09:24.362Z,4.25
2023-05-26T12:11:53.416Z,4.47
2023-05-26T12:14:23.516Z,5.07
2023-05-26T12:16:53.757Z,4.53
2023-05-26T12:19:25.090Z,4.27
2023-05-26T12:21:57.224Z,4.20
2023-05-26T12:24:31.872Z,4.32
2023-05-26T12:27:09.418Z,4.75
2023-05-26T12:29:41.887Z,4.53
2023-05-26T12:32:11.551Z,5.50
2023-05-26T12:34:40.402Z,4.30
2023-05-26T12:37:07.811Z,3.88
2023-05-26T12:39:35.165Z,4.32
2023-05-26T12:42:03.172Z,4.88
2023-05-26T12:44:30.602Z,5.83
2023-05-26T12:46:57.922Z,4.55
2023-05-26T12:49:25.164Z,4.78
2023-05-26T12:51:52.456Z,4.63
2023-05-26T12:54:19.741Z,4.43
2023-05-26T12:56:47.074Z,4.27
2023-05-26T12:59:20.877Z,4.53
2023-05-26T13:01:49.261Z,4.50
2023-05-26T13:04:18.072Z,5.18
2023-05-26T13:06:49.714Z,4.70
2023-05-26T13:09:19.729Z,4.07
2023-05-26T13:11:47.593Z,5.32
2023-05-26T13:14:15.880Z,4.78
2023-05-26T13:16:43.187Z,4.53
2023-05-26T13:19:11.167Z,4.60
2023-05-26T13:21:39.299Z,5.63
2023-05-26T13:24:06.642Z,5.18
2023-05-26T13:26:33.923Z,3.90
2023-05-26T13:29:01.921Z,4.20
2023-05-26T13:31:29.239Z,4.88
2023-05-26T13:33:56.485Z,4.43
2023-05-26T13:36:24.477Z,4.30
2023-05-26T13:38:51.736Z,3.80
2023-05-26T13:41:20.478Z,3.83
2023-05-26T13:43:47.934Z,4.28
2023-05-26T13:46:15.341Z,4.17
2023-05-26T13:48:42.672Z,3.92
2023-05-26T13:51:09.970Z,4.38
2023-05-26T13:53:38.546Z,4.68
2023-05-26T13:56:18.127Z,4.30
2023-05-26T13:58:54.194Z,4.40
2023-05-26T14:01:36.006Z,4.00
2023-05-26T14:04:06.925Z,3.95
2023-05-26T14:06:37.628Z,4.35
2023-05-26T14:09:15.841Z,4.65
2023-05-26T14:11:43.777Z,4.40
2023-05-26T14:14:11.163Z,4.45
2023-05-26T14:16:38.534Z,4.57
2023-05-26T14:19:12.891Z,3.80
2023-05-26T14:22:13.965Z,4.00
2023-05-26T14:24:33.142Z,4.00
2023-05-26T14:27:00.721Z,4.80
2023-05-26T14:29:28.481Z,4.28
2023-05-26T14:31:55.996Z,4.60
2023-05-26T14:34:23.368Z,4.60
2023-05-26T14:36:50.959Z,4.87
2023-05-26T14:39:18.314Z,4.40
2023-05-26T14:41:45.630Z,4.45
2023-05-26T14:44:13.125Z,3.78
2023-05-26T14:46:40.654Z,3.80
2023-05-26T14:49:09.137Z,4.77
2023-05-26T14:51:37.950Z,4.60
2023-05-26T14:54:06.820Z,4.53
2023-05-26T14:56:34.265Z,4.75
2023-05-26T14:59:01.674Z,4.57
2023-05-26T15:01:29.060Z,4.57
2023-05-26T15:04:13.614Z,4.53
2023-05-26T15:06:43.552Z,4.40
2023-05-26T15:09:10.985Z,4.45
2023-05-26T15:11:38.303Z,4.18
2023-05-26T15:14:06.889Z,4.47
2023-05-26T15:16:34.924Z,5.22
2023-05-26T15:19:02.879Z,5.43
2023-05-26T15:24:01.709Z,5.43
2023-05-26T15:26:29.145Z,5.07
2023-05-26T15:28:56.573Z,4.45
2023-05-26T15:31:23.830Z,4.20
2023-05-26T15:33:51.434Z,4.55
2023-05-26T15:36:26.521Z,4.72
2023-05-26T15:38:54.597Z,5.60
2023-05-26T15:41:24.843Z,5.55
2023-05-26T15:43:53.596Z,4.95
2023-05-26T15:46:20.925Z,4.72
2023-05-26T15:48:48.208Z,4.72
2023-05-26T15:51:15.460Z,5.00
2023-05-26T15:53:42.841Z,6.00
2023-05-26T15:56:10.066Z,4.75
2023-05-26T15:58:37.432Z,5.13
2023-05-26T16:01:05.242Z,4.63
2023-05-26T16:03:32.852Z,5.17
2023-05-26T16:06:00.219Z,5.10
2023-05-26T16:08:27.712Z,5.15
2023-05-26T16:10:55.005Z,5.05
2023-05-26T16:13:22.252Z,5.93
2023-05-26T16:15:49.518Z,4.73
2023-05-26T16:18:16.811Z,4.38
2023-05-26T16:20:44.464Z,4.60
2023-05-26T16:23:11.893Z,5.30
2023-05-26T16:25:39.376Z,4.68
2023-05-26T16:28:06.734Z,4.97
2023-05-26T16:30:34.118Z,6.07
2023-05-26T16:33:01.514Z,4.82
2023-05-26T16:35:46.514Z,5.30
2023-05-26T16:38:14.075Z,5.20
2023-05-26T16:40:41.422Z,19.57
2023-05-26T16:43:11.549Z,6.20
2023-05-26T16:45:38.809Z,5.38
2023-05-26T16:48:06.127Z,5.40
2023-05-26T16:50:33.395Z,4.60
2023-05-26T16:53:00.731Z,4.90
2023-05-26T16:55:27.922Z,4.88
2023-05-26T16:57:55.449Z,4.63
2023-05-26T17:00:22.736Z,5.40
2023-05-26T17:02:50.116Z,5.28
2023-05-26T17:05:17.578Z,4.80
2023-05-26T17:07:44.864Z,4.95
2023-05-26T17:10:12.373Z,4.82
2023-05-26T17:12:39.659Z,5.22
2023-05-26T17:15:07.765Z,4.72
2023-05-26T17:17:35.051Z,4.67
2023-05-26T17:20:03.200Z,4.93
2023-05-26T17:22:30.598Z,4.57
2023-05-26T17:24:57.820Z,4.45
2023-05-26T17:27:25.123Z,4.90
2023-05-26T17:29:52.330Z,4.50
2023-05-26T17:32:19.641Z,3.70
2023-05-26T17:34:47.691Z,4.53
2023-05-26T17:37:15.064Z,4.10
2023-05-26T17:39:43.350Z,3.75
2023-05-26T17:42:11.084Z,4.03
2023-05-26T17:44:38.456Z,3.50
2023-05-26T17:47:06.143Z,3.95
2023-05-26T17:49:33.679Z,3.67
2023-05-26T17:52:01.313Z,3.83
2023-05-26T17:54:29.945Z,3.93
2023-05-26T17:56:57.859Z,2.80
2023-05-26T17:59:28.736Z,3.53
2023-05-26T18:01:56.198Z,3.80
2023-05-26T18:04:23.534Z,3.45
2023-05-26T18:06:50.843Z,3.07
2023-05-26T18:09:18.123Z,3.55
2023-05-26T18:11:45.560Z,2.85
2023-05-26T18:14:13.345Z,2.80
2023-05-26T18:16:41.005Z,2.90
2023-05-26T18:19:08.851Z,2.50
2023-05-26T18:21:39.636Z,2.65
2023-05-26T18:24:07.430Z,2.92
2023-05-26T18:26:34.822Z,2.97
2023-05-26T18:29:03.383Z,2.90
2023-05-26T18:31:30.730Z,2.23
2023-05-26T18:34:02.167Z,2.17
2023-05-26T18:36:33.902Z,2.70
2023-05-26T18:39:01.139Z,2.92
2023-05-26T18:41:28.414Z,1.77
2023-05-26T18:43:55.695Z,2.60
2023-05-26T18:46:23.006Z,2.78
2023-05-26T18:48:50.277Z,3.10
2023-05-26T18:51:17.795Z,2.15
2023-05-26T18:53:45.067Z,2.88
2023-05-26T18:56:14.485Z,2.87
2023-05-26T18:58:41.763Z,2.88
2023-05-26T19:01:09.035Z,2.88
2023-05-26T19:03:36.522Z,2.55
2023-05-26T19:06:04.065Z,2.95
2023-05-26T19:08:31.353Z,2.77
2023-05-26T19:10:58.887Z,2.47
2023-05-26T19:13:26.435Z,2.33
2023-05-26T19:15:53.795Z,2.45
2023-05-26T19:18:22.151Z,2.13
2023-05-26T19:20:49.728Z,2.50
2023-05-26T19:23:17.096Z,2.72
2023-05-26T19:25:44.404Z,3.05
2023-05-26T19:28:17.921Z,2.78
2023-05-26T19:30:46.291Z,2.25
2023-05-26T19:33:13.813Z,2.65
2023-05-26T19:35:41.081Z,2.10
2023-05-26T19:38:08.630Z,2.53
2023-05-26T19:40:37.979Z,2.47
2023-05-26T19:43:05.403Z,2.10
2023-05-26T19:45:32.668Z,2.40
2023-05-26T19:47:59.930Z,2.40
2023-05-26T19:50:27.561Z,2.25
2023-05-26T19:52:55.639Z,2.53
2023-05-26T19:55:23.108Z,2.63
2023-05-26T19:57:50.503Z,2.70
2023-05-26T20:00:18.178Z,2.97
2023-05-26T20:02:46.025Z,2.33
2023-05-26T20:05:13.665Z,2.70
2023-05-26T20:07:40.941Z,2.50
2023-05-26T20:10:08.519Z,2.47
2023-05-26T20:12:35.780Z,2.67
2023-05-26T20:15:03.182Z,2.10
2023-05-26T20:17:31.169Z,2.45
2023-05-26T20:20:12.560Z,2.08
2023-05-26T20:22:41.883Z,2.15
2023-05-26T20:25:09.500Z,3.42
2023-05-26T20:27:38.927Z,2.55
2023-05-26T20:30:08.809Z,2.28
2023-05-26T20:32:36.591Z,3.05
2023-05-26T20:35:04.987Z,2.97
2023-05-26T20:37:32.422Z,3.13
2023-05-26T20:40:00.694Z,2.97
2023-05-26T20:42:31.603Z,3.58
2023-05-26T20:44:59.300Z,2.67
2023-05-26T20:47:26.586Z,3.08
2023-05-26T20:49:54.080Z,3.03
2023-05-26T20:52:21.725Z,2.88
2023-05-26T20:54:48.991Z,2.53
2023-05-26T20:57:16.521Z,3.60
2023-05-26T20:59:43.920Z,2.85
2023-05-26T21:02:12.442Z,2.92
2023-05-26T21:04:39.768Z,2.65
2023-05-26T21:07:07.096Z,2.70
2023-05-26T21:09:34.503Z,2.90
2023-05-26T21:12:02.964Z,3.33
2023-05-26T21:14:30.443Z,3.22
2023-05-26T21:16:57.894Z,2.45
2023-05-26T21:19:25.421Z,3.47
2023-05-26T21:21:52.687Z,2.92
2023-05-26T21:24:20.090Z,3.33
2023-05-26T21:26:47.333Z,3.25
2023-05-26T21:29:14.779Z,2.28
2023-05-26T21:31:42.068Z,3.03
2023-05-26T21:34:09.348Z,2.55
2023-05-26T21:36:37.739Z,2.75
2023-05-26T21:39:05.260Z,3.20
2023-05-26T21:41:32.895Z,3.08
2023-05-26T21:44:00.128Z,3.03
2023-05-26T21:46:27.364Z,2.88
2023-05-26T21:48:54.717Z,3.30
2023-05-26T21:51:24.650Z,3.08
2023-05-26T21:53:51.938Z,3.33
2023-05-26T21:56:19.281Z,3.50
2023-05-26T21:58:47.107Z,3.03
2023-05-26T22:01:14.527Z,3.63
2023-05-26T22:03:42.204Z,3.53
2023-05-26T22:06:09.595Z,2.45
2023-05-26T22:08:36.858Z,3.45
2023-05-26T22:11:04.126Z,3.25
2023-05-26T22:13:31.456Z,2.97
2023-05-26T22:15:59.158Z,3.35
2023-05-26T22:18:26.586Z,3.15
2023-05-26T22:20:53.943Z,3.10
2023-05-26T22:23:21.219Z,2.58
2023-05-26T22:25:48.481Z,2.70
2023-05-26T22:28:15.862Z,2.85
2023-05-26T22:30:45.540Z,2.13
2023-05-26T22:33:12.848Z,2.63
2023-05-26T22:35:40.117Z,2.40
2023-05-26T22:38:07.396Z,3.05
2023-05-26T22:40:34.680Z,2.40
2023-05-26T22:43:01.887Z,1.50
2023-05-26T22:45:29.154Z,2.03
2023-05-26T22:47:57.091Z,2.40
2023-05-26T22:50:24.341Z,2.85
2023-05-26T22:52:51.656Z,2.10
2023-05-26T22:55:21.475Z,2.38
2023-05-26T22:57:55.613Z,3.10
2023-05-26T23:00:22.890Z,2.20
2023-05-26T23:02:50.261Z,2.72
2023-05-26T23:05:17.566Z,2.25
2023-05-26T23:07:44.825Z,2.10
2023-05-26T23:10:12.436Z,2.75
2023-05-26T23:12:39.726Z,2.15
2023-05-26T23:15:07.546Z,2.50
2023-05-26T23:17:34.899Z,2.05
2023-05-26T23:20:02.524Z,2.40
2023-05-26T23:22:29.951Z,2.05
2023-05-26T23:24:57.209Z,2.20
2023-05-26T23:27:24.530Z,2.25
2023-05-26T23:29:51.905Z,2.65
2023-05-26T23:32:19.552Z,2.15
2023-05-26T23:34:46.910Z,2.17
2023-05-26T23:37:17.155Z,2.63
2023-05-26T23:39:44.556Z,2.00
2023-05-26T23:42:11.877Z,1.50
2023-05-26T23:44:39.146Z,1.95
2023-05-26T23:47:07.468Z,2.13
2023-05-26T23:49:34.763Z,2.00
2023-05-26T23:52:02.050Z,1.63
2023-05-26T23:54:29.584Z,1.42
2023-05-26T23:56:56.971Z,1.77
2023-05-26T23:59:24.357Z,2.03
